• Join FlightAware (Why Join?)
  • Login
  • US Flag 
10:17AM EDT


 

Airport Tracker/Info


-or-


 

Live Flight TrackerFlight Track Log ✈ RAX172 ✈ 24-Jan-2014 ✈ KTUL - KMWO

Flight Track Log - Related Links

Times and Time Zones

All times are in EST time to prevent confusion due to time zone crossing. See the RAX172 flight status page for this flight to view local times or setup timezone preferences in your user account.

Time Position Orientation Groundspeed Altitude Reporting Facility
EST Latitude Longitude Course Direction KTS MPH feet Rate Location/Type
06:32PM 36.1528 -95.8094 113° Southeast 291 335 6,100  Level Kansas City Center
06:32PM 36.1578 -95.7836 77° East 294 338 6,700 2,820 Climbing Kansas City Center
06:33PM 36.1725 -95.6981 78° East 327 376 9,300 2,940 Climbing Kansas City Center
06:34PM 36.1753 -95.6794 80° East 301 346 9,700 2,760 Climbing Kansas City Center
06:35PM 36.2194 -95.5853 60° Northeast 310 357 12,700 2,760 Climbing Kansas City Center
06:36PM 36.2803 -95.5031 47° Northeast 316 364 15,500 2,760 Climbing Kansas City Center
06:37PM 36.3386 -95.4217 48° Northeast 317 365 18,400 2,340 Climbing Kansas City Center
06:38PM 36.3956 -95.3364 50° Northeast 322 371 20,400 2,280 Climbing Kansas City Center
06:39PM 36.4667 -95.2292 50° Northeast 333 383 23,200 2,520 Climbing Kansas City Center
06:40PM 36.4936 -95.1175 73° East 338 389 25,500 1,740 Climbing Kansas City Center
06:41PM 36.5292 -95.0150 67° East 340 391 26,800 1,380 Climbing Kansas City Center
06:42PM 36.5661 -94.9056 67° East 343 395 28,400 1,440 Climbing Kansas City Center
06:43PM 36.6019 -94.7953 68° East 344 396 29,800 1,200 Climbing Kansas City Center
06:44PM 36.6469 -94.6583 68° East 352 405 31,000 1,200 Climbing Kansas City Center
06:45PM 36.6839 -94.5428 68° East 357 411 32,300 1,200 Climbing Kansas City Center
06:46PM 36.7211 -94.4322 67° East 350 403 33,600 840 Climbing Kansas City Center
06:47PM 36.7583 -94.3236 67° East 343 395 34,100 600 Climbing Kansas City Center
06:48PM 36.7975 -94.2108 67° East 349 402 34,900 480 Climbing Kansas City Center
06:49PM 36.8389 -94.0978 65° Northeast 355 409 35,100  Climbing Kansas City Center
06:50PM 36.8797 -93.9736 68° East 377 434 34,900 -60 Descending Kansas City Center
06:51PM 36.9197 -93.8453 69° East 392 451 35,000  Climbing Kansas City Center
06:52PM 36.9669 -93.6936 69° East 396 456 35,000  Level Kansas City Center
06:53PM 37.0056 -93.5633 70° East 397 457 35,000  Level Kansas City Center
06:54PM 37.0442 -93.4317 70° East 400 460 35,000  Level Kansas City Center
06:55PM 37.0867 -93.3019 68° East 403 464 35,000  Level Kansas City Center
06:56PM 37.1311 -93.1733 67° East 402 463 35,000  Level Kansas City Center
06:57PM 37.1747 -93.0436 67° East 403 464 35,000  Level Kansas City Center
06:58PM 37.2256 -92.8892 68° East 400 460 35,000  Level Kansas City Center
06:59PM 37.2661 -92.7592 69° East 399 459 35,000  Level Kansas City Center
07:00PM 37.3075 -92.6292 68° East 401 461 35,000  Level Kansas City Center
07:01PM 37.3478 -92.4972 69° East 402 463 35,000  Level Kansas City Center
07:02PM 37.3881 -92.3661 69° East 404 465 35,000  Level Kansas City Center
07:03PM 37.4294 -92.2322 69° East 408 470 35,000  Level Kansas City Center
07:04PM 37.4728 -92.1022 67° East 405 466 35,000  Level Kansas City Center
07:05PM 37.5244 -91.9472 67° East 401 461 35,000  Level Kansas City Center
07:06PM 37.5656 -91.8142 69° East 405 466 35,000  Level Kansas City Center
07:08PM 37.6058 -91.6794 69° East 409 471 35,000  Level Kansas City Center
07:09PM 37.6442 -91.5447 70° East 409 471 35,000  Level Kansas City Center
07:10PM 37.6842 -91.4092 70° East 409 471 35,000  Level Kansas City Center
07:11PM 37.7233 -91.2725 70° East 413 475 35,000  Level Kansas City Center
07:12PM 37.7636 -91.1358 70° East 414 476 35,000  Level Kansas City Center
07:13PM 37.8050 -90.9936 70° East 413 475 35,000  Level Kansas City Center
07:14PM 37.8447 -90.8569 70° East 415 478 35,000  Level Kansas City Center
07:15PM 37.8972 -90.6958 68° East 415 478 35,000  Level Kansas City Center
07:16PM 37.9406 -90.5597 68° East 418 481 35,000  Level Kansas City Center
07:17PM 37.9819 -90.4219 69° East 420 483 35,000  Level Kansas City Center
07:18PM 38.0217 -90.2800 70° East 427 491 35,000  Level Kansas City Center
07:19PM 38.0583 -90.1392 72° East 425 489 35,000  Level Kansas City Center
07:20PM 38.1072 -89.9694 70° East 423 487 35,000  Level Kansas City Center
07:21PM 38.1467 -89.8344 70° East 420 483 35,000  Level Kansas City Center
07:22PM 38.1856 -89.6944 70° East 422 486 35,000  Level Kansas City Center
07:23PM 38.2261 -89.5528 70° East 427 491 35,000  Level Kansas City Center
07:24PM 38.2650 -89.4108 71° East 428 493 35,000  Level Kansas City Center
07:25PM 38.3044 -89.2686 70° East 428 493 35,000  Level Kansas City Center
07:26PM 38.3528 -89.0981 70° East 428 493 35,000  Level Kansas City Center
07:27PM 38.3956 -88.9456 70° East 428 493 35,000  Level Kansas City Center
07:28PM 38.4356 -88.8022 70° East 430 495 35,000  Level Kansas City Center
07:29PM 38.4736 -88.6703 70° East 429 494 35,000  Level Kansas City Center
07:30PM 38.5156 -88.5286 69° East 433 498 35,000  Level Kansas City Center
07:31PM 38.5642 -88.3533 70° East 434 499 35,000  Level Kansas City Center
07:32PM 38.6042 -88.2069 71° East 433 498 35,000  Level Kansas City Center
07:33PM 38.6447 -88.0603 70° East 433 498 35,000  Level Kansas City Center
07:34PM 38.6839 -87.9108 71° East 437 503 35,000  Level Kansas City Center
07:35PM 38.7000 -87.8522 71° East 436 502 35,000 -420 Level Indianapolis Center
07:36PM 38.7483 -87.6714 71° East 443 510 34,400 -540 Descending Indianapolis Center
07:37PM 38.7878 -87.5153 72° East 453 521 34,000 -540 Descending Indianapolis Center
07:38PM 38.8236 -87.3583 74° East 454 522 33,300 -960 Descending Indianapolis Center
07:39PM 38.8625 -87.1983 73° East 462 532 32,100 -1,140 Descending Indianapolis Center
07:40PM 38.9056 -87.0397 71° East 464 534 31,000 -1,080 Descending Indianapolis Center
07:41PM 38.9475 -86.8814 71° East 464 534 30,000 -900 Descending Indianapolis Center
07:42PM 38.9872 -86.7239 72° East 460 529 29,200 -540 Descending Indianapolis Center
07:43PM 39.0225 -86.5592 75° East 452 520 29,000 -480 Descending Indianapolis Center
07:44PM 39.0372 -86.4011 83° East 452 520 28,300 -1,260 Descending Indianapolis Center
07:45PM 39.0389 -86.2322 89° East 473 544 26,500 -1,860 Descending Indianapolis Center
07:46PM 39.0469 -86.0581 87° East 493 567 24,600 -1,200 Descending Indianapolis Center
07:47PM 39.0714 -85.8875 79° East 491 565 24,100 -540 Descending Indianapolis Center
07:48PM 39.1281 -85.7108 67° East 451 519 23,600 -1,260 Descending Indianapolis Center
07:49PM 39.1769 -85.5603 67° East 458 527 21,600 -1,860 Descending Indianapolis Center
07:50PM 39.2233 -85.4108 68° East 454 522 19,800 -1,800 Descending Indianapolis Center
07:51PM 39.2694 -85.2656 68° East 444 511 18,000 -1,740 Descending Indianapolis Center
07:52PM 39.3142 -85.1261 67° East 426 490 16,300 -2,160 Descending Indianapolis Center
07:52PM 39.3267 -85.0839 69° East 419 482 15,500 -2,280 Descending Indianapolis Center
07:53PM 39.3575 -84.9900 67° East 415 478 14,000 -2,280 Descending Indianapolis Center
07:53PM 39.3650 -84.9692 65° Northeast 408 470 13,500 -2,340 Descending Indianapolis Center
07:54PM 39.4044 -84.8433 68° East 376 433 11,600 -2,100 Descending Indianapolis Center
07:55PM 39.4378 -84.7189 71° East 366 421 9,300 -2,520 Descending Indianapolis Center
07:56PM 39.4636 -84.5964 75° East 338 389 6,600 -2,460 Descending Indianapolis Center
07:56PM 39.4619 -84.5994 235° Southwest 353 406 6,800 6,000 Climbing Indianapolis Center
07:58PM 39.4983 -84.4583 75° East  Level FlightAware Approximate
08:05PM 39.5167 -84.3833 72° East  Level FlightAware Approximate
08:06PM 39.5318 -84.3964 72° East  Level Estimated
08:07PM 39.5318 -84.3964 72° East  Level Estimated